Time;durP1;ratioP1;P1;durP2;ratioP2;P2;SDS_P1;SDS_P2;PMS_P1;PMS_P2;Temp;Humidity;BMP_temperature;BMP_pressure;BME280_temperature;BME280_humidity;BME280_pressure;Samples;Min_cycle;Max_cycle;Signal;HPM_P1;HPM_P2
2021/08/18 04:31:38;;;;;;;9.57;6.57;;;14.40;99.90;;;;;;5547883;23;20867;-77
2021/08/18 04:34:03;;;;;;;12.30;6.10;;;14.50;99.90;;;;;;4966672;28;20412;-79
2021/08/18 04:36:29;;;;;;;10.47;6.40;;;14.50;99.90;;;;;;4974107;28;20172;-80
2021/08/18 04:38:54;;;;;;;10.43;6.30;;;14.50;99.90;;;;;;4974915;28;20169;-79
2021/08/18 04:41:20;;;;;;;9.37;6.70;;;14.50;99.90;;;;;;4973855;28;20665;-80
2021/08/18 04:43:45;;;;;;;9.40;6.10;;;14.50;99.90;;;;;;4974998;28;20220;-80
2021/08/18 04:46:11;;;;;;;9.60;6.97;;;14.50;99.90;;;;;;4977766;28;20175;-79
2021/08/18 04:48:36;;;;;;;12.17;6.77;;;14.50;99.90;;;;;;4978834;28;20235;-80
2021/08/18 04:51:02;;;;;;;9.00;6.90;;;14.50;99.90;;;;;;4978559;28;20224;-80
2021/08/18 04:53:28;;;;;;;8.67;6.83;;;14.60;99.90;;;;;;4978332;28;20195;-80
2021/08/18 04:55:54;;;;;;;9.17;6.00;;;14.50;99.90;;;;;;4978316;28;20576;-80
2021/08/18 04:58:19;;;;;;;11.83;5.90;;;14.50;99.90;;;;;;4976457;28;20954;-80
2021/08/18 05:00:45;;;;;;;13.37;7.23;;;14.60;99.90;;;;;;4977870;28;20589;-80
2021/08/18 05:03:14;;;;;;;8.87;5.70;;;14.60;99.90;;;;;;4978166;28;20184;-80
2021/08/18 05:05:40;;;;;;;9.37;6.20;;;14.60;99.90;;;;;;4978545;28;20645;-79
2021/08/18 05:08:07;;;;;;;12.23;5.83;;;14.60;99.90;;;;;;4978704;28;20473;-79
2021/08/18 05:10:33;;;;;;;9.53;6.87;;;14.60;99.90;;;;;;4978439;28;20505;-79
2021/08/18 05:12:59;;;;;;;14.70;6.50;;;14.60;99.90;;;;;;4978376;28;20408;-80
2021/08/18 05:15:26;;;;;;;9.63;6.87;;;14.70;99.90;;;;;;4978666;28;20981;-81
2021/08/18 05:17:52;;;;;;;9.97;5.63;;;14.70;99.90;;;;;;4978368;28;20227;-79
2021/08/18 05:20:18;;;;;;;12.10;7.23;;;14.70;99.90;;;;;;4978315;28;20419;-80
2021/08/18 05:22:45;;;;;;;11.00;6.03;;;14.60;99.90;;;;;;4979042;28;20230;-79
2021/08/18 05:25:11;;;;;;;9.43;6.73;;;14.60;99.90;;;;;;4977716;28;21082;-80
2021/08/18 05:27:38;;;;;;;7.30;5.73;;;14.70;99.90;;;;;;4979196;28;20995;-80
2021/08/18 05:30:05;;;;;;;8.93;6.20;;;14.70;99.90;;;;;;4978611;28;20497;-80
2021/08/18 05:32:30;;;;;;;10.47;6.90;;;14.70;99.90;;;;;;4978235;28;20439;-80
2021/08/18 05:34:57;;;;;;;9.43;6.77;;;14.70;99.90;;;;;;4978752;28;20443;-79
2021/08/18 05:37:22;;;;;;;8.13;6.20;;;14.70;99.90;;;;;;4978513;28;20465;-80
2021/08/18 05:39:48;;;;;;;11.33;6.30;;;14.70;99.90;;;;;;4978453;28;20180;-80
2021/08/18 05:42:13;;;;;;;11.33;7.10;;;14.70;99.90;;;;;;4978300;28;20751;-80
2021/08/18 05:44:39;;;;;;;9.43;6.77;;;14.80;99.90;;;;;;4978426;28;20244;-80
2021/08/18 05:47:05;;;;;;;9.57;6.30;;;14.80;99.90;;;;;;4978060;28;20669;-80
2021/08/18 05:49:30;;;;;;;9.30;5.83;;;14.90;99.90;;;;;;4978274;28;20176;-81
2021/08/18 05:51:56;;;;;;;13.10;7.10;;;14.90;99.90;;;;;;4976306;28;20643;-79
2021/08/18 05:54:21;;;;;;;11.93;6.03;;;14.90;99.90;;;;;;4976491;28;20314;-79
2021/08/18 05:56:48;;;;;;;8.57;5.50;;;14.90;99.90;;;;;;4975378;28;20172;-79
2021/08/18 05:59:14;;;;;;;10.10;5.90;;;15.00;99.90;;;;;;4978149;28;20611;-79
2021/08/18 06:01:39;;;;;;;8.13;5.60;;;15.00;99.90;;;;;;4978287;28;20440;-80
2021/08/18 06:04:05;;;;;;;6.23;4.83;;;15.00;99.90;;;;;;4978193;28;20171;-80
2021/08/18 06:06:30;;;;;;;10.33;5.37;;;15.10;99.90;;;;;;4979053;28;20184;-80
2021/08/18 06:08:58;;;;;;;9.67;5.07;;;15.00;99.90;;;;;;4979079;28;20176;-79
2021/08/18 06:11:23;;;;;;;7.23;4.50;;;15.10;99.90;;;;;;4976165;28;20250;-80
2021/08/18 06:13:49;;;;;;;5.93;4.37;;;15.20;99.90;;;;;;4977767;28;20423;-79
2021/08/18 06:16:14;;;;;;;6.27;4.87;;;15.30;99.90;;;;;;4978222;28;20523;-80
2021/08/18 06:18:40;;;;;;;4.40;3.70;;;15.50;99.90;;;;;;4976383;28;20203;-80
2021/08/18 06:21:05;;;;;;;8.27;3.70;;;15.40;99.90;;;;;;4977897;28;20288;-80
2021/08/18 06:23:32;;;;;;;5.07;3.80;;;15.50;99.90;;;;;;4976578;28;20266;-80
2021/08/18 06:25:58;;;;;;;5.30;4.17;;;15.50;99.90;;;;;;4977539;28;20639;-80
2021/08/18 06:28:25;;;;;;;7.53;4.70;;;15.60;99.90;;;;;;4977320;28;20490;-80
2021/08/18 06:30:51;;;;;;;7.30;3.27;;;15.60;99.90;;;;;;4977907;28;20188;-80
2021/08/18 06:33:16;;;;;;;4.67;3.43;;;15.50;99.90;;;;;;4975968;28;20438;-80
2021/08/18 06:35:42;;;;;;;4.17;3.30;;;15.60;99.90;;;;;;4977297;28;20419;-80
2021/08/18 06:38:08;;;;;;;5.30;3.80;;;15.50;99.90;;;;;;4977481;28;20206;-80
2021/08/18 06:40:34;;;;;;;3.50;2.77;;;15.50;99.90;;;;;;4977584;28;20176;-79
2021/08/18 06:43:00;;;;;;;5.17;3.90;;;15.60;99.90;;;;;;4977087;28;20493;-81
2021/08/18 06:45:25;;;;;;;5.30;3.43;;;15.60;99.90;;;;;;4977949;28;20597;-79
2021/08/18 06:47:51;;;;;;;6.07;3.73;;;15.70;99.90;;;;;;4977567;28;20587;-80
2021/08/18 06:50:16;;;;;;;3.60;3.00;;;15.70;99.90;;;;;;4977577;28;20172;-79
2021/08/18 06:52:42;;;;;;;5.17;3.13;;;15.80;99.90;;;;;;4976179;28;20578;-79
2021/08/18 06:55:09;;;;;;;7.20;4.00;;;15.70;99.90;;;;;;4977515;28;20179;-79
2021/08/18 06:57:35;;;;;;;5.20;3.67;;;15.80;99.90;;;;;;4976880;28;20211;-79
2021/08/18 07:00:00;;;;;;;6.60;3.87;;;15.80;99.90;;;;;;4977787;28;20407;-80
2021/08/18 07:02:26;;;;;;;4.03;2.93;;;15.80;99.90;;;;;;4977538;28;20582;-80
2021/08/18 07:04:51;;;;;;;5.50;3.73;;;15.90;99.90;;;;;;4977461;28;20211;-80
2021/08/18 07:07:17;;;;;;;8.30;5.30;;;16.00;99.90;;;;;;4975873;28;20204;-79
2021/08/18 07:09:42;;;;;;;9.30;5.20;;;16.00;99.90;;;;;;4977458;28;20168;-79
2021/08/18 07:12:08;;;;;;;5.90;5.00;;;16.10;99.90;;;;;;4976850;28;20202;-79
2021/08/18 07:14:34;;;;;;;5.50;4.73;;;16.10;99.90;;;;;;4976032;28;20176;-80
2021/08/18 07:16:59;;;;;;;9.90;4.87;;;16.20;99.90;;;;;;4976176;28;20466;-80
2021/08/18 07:19:25;;;;;;;5.60;4.60;;;16.20;99.90;;;;;;4974752;28;20180;-79
2021/08/18 07:21:50;;;;;;;7.87;3.80;;;16.30;99.90;;;;;;4975385;28;20291;-80
2021/08/18 07:24:16;;;;;;;5.53;3.57;;;16.30;99.90;;;;;;4976038;28;20230;-81
2021/08/18 07:26:41;;;;;;;3.97;3.40;;;16.40;99.90;;;;;;4976183;28;20188;-80
2021/08/18 07:29:07;;;;;;;3.80;2.80;;;16.50;99.90;;;;;;4976139;28;20183;-80
2021/08/18 07:31:32;;;;;;;3.30;3.00;;;16.50;99.90;;;;;;4975756;28;20700;-80
2021/08/18 07:33:58;;;;;;;3.00;2.47;;;16.50;99.90;;;;;;4974395;28;20176;-80
2021/08/18 07:36:23;;;;;;;5.40;2.50;;;16.60;99.90;;;;;;4976361;28;20681;-80
2021/08/18 07:38:49;;;;;;;6.70;3.43;;;16.70;99.90;;;;;;4976117;28;20680;-80
2021/08/18 07:41:15;;;;;;;4.67;3.20;;;16.70;99.90;;;;;;4975991;28;20196;-79
2021/08/18 07:43:41;;;;;;;2.13;1.90;;;16.80;99.90;;;;;;4976074;28;20331;-80
2021/08/18 07:46:06;;;;;;;3.07;2.40;;;16.90;99.90;;;;;;4974426;28;20419;-80
2021/08/18 07:48:32;;;;;;;4.73;2.43;;;17.10;99.90;;;;;;4976370;28;20204;-80
2021/08/18 07:50:59;;;;;;;3.97;1.90;;;17.20;99.90;;;;;;4975649;28;20560;-79
2021/08/18 07:53:25;;;;;;;2.60;2.37;;;17.40;99.90;;;;;;4975742;28;20716;-79
2021/08/18 07:55:51;;;;;;;5.33;1.80;;;17.50;99.90;;;;;;4975941;28;20415;-80
2021/08/18 07:58:16;;;;;;;2.37;1.50;;;17.80;99.90;;;;;;4975772;28;20427;-78
2021/08/18 08:00:42;;;;;;;1.90;1.57;;;18.10;99.90;;;;;;4976191;28;20180;-80
2021/08/18 08:03:08;;;;;;;4.20;1.20;;;18.30;99.90;;;;;;4976731;28;20243;-80
2021/08/18 08:05:33;;;;;;;2.10;1.57;;;18.50;99.90;;;;;;4976626;28;20176;-80
2021/08/18 08:07:59;;;;;;;1.33;1.13;;;18.90;99.90;;;;;;4976225;28;20207;-80
2021/08/18 08:10:25;;;;;;;1.47;1.20;;;19.00;99.90;;;;;;4976652;28;20195;-80
2021/08/18 08:12:50;;;;;;;0.90;0.90;;;19.00;99.90;;;;;;4975255;28;20196;-80
2021/08/18 08:15:16;;;;;;;1.57;1.10;;;19.10;99.90;;;;;;4974749;28;20187;-80
2021/08/18 08:17:41;;;;;;;1.43;1.27;;;19.20;99.90;;;;;;4975740;28;20214;-81
2021/08/18 08:20:09;;;;;;;2.00;0.90;;;19.30;99.90;;;;;;4976410;28;20234;-80
2021/08/18 08:22:35;;;;;;;1.00;0.83;;;19.20;99.90;;;;;;4979283;28;20629;-80
2021/08/18 08:25:00;;;;;;;0.70;0.60;;;19.20;99.90;;;;;;4978657;28;20419;-80
2021/08/18 08:27:26;;;;;;;1.43;0.70;;;19.10;99.90;;;;;;4978555;28;20211;-81
2021/08/18 08:29:51;;;;;;;0.60;0.60;;;19.00;99.90;;;;;;4977310;28;20191;-80
2021/08/18 08:32:17;;;;;;;1.43;0.60;;;18.90;99.90;;;;;;4978542;28;20227;-80
2021/08/18 08:34:42;;;;;;;1.00;0.50;;;18.80;99.90;;;;;;4979280;28;20656;-80
2021/08/18 08:37:08;;;;;;;1.07;0.70;;;18.90;99.90;;;;;;4978490;28;20192;-80
2021/08/18 08:39:33;;;;;;;0.60;0.53;;;18.90;99.90;;;;;;4978453;28;20203;-80
2021/08/18 08:42:02;;;;;;;0.67;0.57;;;18.80;99.90;;;;;;4978148;28;20199;-80
2021/08/18 08:44:28;;;;;;;0.50;0.43;;;18.70;99.90;;;;;;4978187;28;20187;-80
2021/08/18 08:46:54;;;;;;;0.70;0.60;;;18.80;99.90;;;;;;4978012;28;20461;-79
2021/08/18 08:49:21;;;;;;;0.50;0.40;;;18.80;99.90;;;;;;4978597;28;20175;-80
2021/08/18 08:51:49;;;;;;;0.80;0.40;;;18.70;99.90;;;;;;4977809;28;20208;-79
2021/08/18 08:54:16;;;;;;;1.47;0.40;;;18.60;99.90;;;;;;4977770;28;20446;-80
2021/08/18 08:56:42;;;;;;;0.60;0.50;;;18.60;99.90;;;;;;4978157;28;20458;-80
2021/08/18 08:59:08;;;;;;;0.73;0.60;;;18.60;99.90;;;;;;4976798;28;20720;-80
2021/08/18 09:02:03;;;;;;;0.60;0.50;;;18.70;99.90;;;;;;4977861;28;20439;-80
2021/08/18 09:04:31;;;;;;;0.70;0.50;;;18.70;99.90;;;;;;4978059;28;20251;-80
2021/08/18 09:07:10;;;;;;;1.13;0.47;;;18.50;99.90;;;;;;4977585;28;20463;-80
2021/08/18 09:09:38;;;;;;;0.60;0.50;;;18.50;99.90;;;;;;4977020;28;20419;-80
2021/08/18 09:12:15;;;;;;;3.70;0.50;;;18.50;99.90;;;;;;4977791;28;20458;-80
2021/08/18 09:14:41;;;;;;;0.50;0.40;;;18.50;99.90;;;;;;4978023;28;20476;-80
2021/08/18 09:17:37;;;;;;;0.50;0.40;;;18.40;99.90;;;;;;4978018;28;20423;-79
2021/08/18 09:20:07;;;;;;;1.33;0.43;;;18.40;99.90;;;;;;4977960;28;20447;-80
2021/08/18 09:22:37;;;;;;;0.50;0.40;;;18.40;99.90;;;;;;4977488;28;20463;-80
2021/08/18 09:25:18;;;;;;;0.77;0.50;;;18.30;99.90;;;;;;4977547;28;20415;-79
2021/08/18 09:27:45;;;;;;;0.60;0.40;;;18.30;99.90;;;;;;4978156;28;20863;-80
2021/08/18 09:30:38;;;;;;;1.97;0.47;;;18.40;99.90;;;;;;4977860;28;21016;-77
2021/08/18 09:33:13;;;;;;;0.40;0.40;;;18.30;99.90;;;;;;4974095;28;20435;-80
2021/08/18 09:35:40;;;;;;;0.50;0.40;;;18.30;99.90;;;;;;4978214;28;20418;-80
2021/08/18 09:38:10;;;;;;;0.90;0.40;;;18.50;99.90;;;;;;4977848;28;20906;-80
2021/08/18 09:40:47;;;;;;;0.40;0.40;;;18.80;99.90;;;;;;4977879;28;20467;-80
2021/08/18 09:43:16;;;;;;;0.50;0.40;;;19.00;99.90;;;;;;4977528;28;20431;-80
2021/08/18 09:45:44;;;;;;;0.47;0.40;;;19.20;99.90;;;;;;4976074;28;20428;-79
2021/08/18 09:48:16;;;;;;;0.40;0.40;;;19.30;99.90;;;;;;4977398;28;20470;-79
2021/08/18 09:50:53;;;;;;;0.57;0.50;;;19.40;99.90;;;;;;4977893;28;20415;-80
2021/08/18 09:53:24;;;;;;;0.60;0.40;;;19.40;99.90;;;;;;4977530;28;20411;-80
2021/08/18 09:56:21;;;;;;;0.40;0.33;;;19.50;99.90;;;;;;4977359;28;20987;-79
2021/08/18 09:58:48;;;;;;;0.40;0.40;;;19.50;99.90;;;;;;4944709;28;20432;-80
2021/08/18 10:01:16;;;;;;;1.83;0.50;;;19.60;99.90;;;;;;4979453;28;20513;-81
2021/08/18 10:03:43;;;;;;;0.80;0.57;;;19.70;99.90;;;;;;4979838;28;20411;-81
2021/08/18 10:06:10;;;;;;;0.60;0.60;;;19.80;99.90;;;;;;4979852;28;20416;-81
2021/08/18 10:08:37;;;;;;;0.50;0.40;;;19.90;99.90;;;;;;4978906;28;20471;-81
2021/08/18 10:11:04;;;;;;;1.73;0.50;;;20.10;99.90;;;;;;4978030;28;20466;-81
2021/08/18 10:13:30;;;;;;;0.50;0.43;;;20.00;99.90;;;;;;4979437;28;20423;-82
2021/08/18 10:15:57;;;;;;;1.37;0.50;;;20.10;99.90;;;;;;4979510;28;20435;-80
2021/08/18 10:18:35;;;;;;;0.80;0.70;;;20.10;99.90;;;;;;4979902;28;20837;-80
2021/08/18 10:21:21;;;;;;;1.53;0.63;;;19.80;99.90;;;;;;4980282;28;20443;-82
2021/08/18 10:24:05;;;;;;;4.73;0.63;;;19.70;99.90;;;;;;4965190;28;20434;-81
2021/08/18 10:26:36;;;;;;;0.50;0.50;;;19.70;99.90;;;;;;4978410;28;20968;-81
2021/08/18 10:29:26;;;;;;;0.60;0.60;;;19.70;99.90;;;;;;4979166;28;20431;-81
2021/08/18 10:31:52;;;;;;;0.70;0.70;;;19.70;99.90;;;;;;4979033;28;20522;-81
2021/08/18 10:34:23;;;;;;;0.60;0.60;;;19.70;99.90;;;;;;4978322;28;20439;-81
2021/08/18 10:36:53;;;;;;;0.80;0.70;;;19.80;99.90;;;;;;4978596;28;20184;-81
2021/08/18 10:39:18;;;;;;;0.90;0.90;;;19.90;99.90;;;;;;4978771;28;20451;-80
2021/08/18 10:42:10;;;;;;;1.87;1.00;;;20.10;99.90;;;;;;4978819;28;20443;-82
2021/08/18 10:44:37;;;;;;;0.80;0.80;;;20.60;99.90;;;;;;4979680;28;20195;-81
2021/08/18 10:47:21;;;;;;;1.07;1.00;;;20.80;99.90;;;;;;4978694;28;20807;-82
2021/08/18 10:50:08;;;;;;;0.90;0.90;;;21.10;99.90;;;;;;4977949;28;20415;-82
2021/08/18 10:52:36;;;;;;;0.83;0.83;;;21.30;99.90;;;;;;4948604;28;20447;-81
2021/08/18 10:55:11;;;;;;;1.03;1.03;;;20.90;99.90;;;;;;4979480;28;20411;-82
2021/08/18 10:57:49;;;;;;;1.93;1.20;;;20.50;99.90;;;;;;4978302;28;20415;-82
2021/08/18 11:00:41;;;;;;;0.90;0.90;;;20.30;99.90;;;;;;4979267;28;20838;-81
2021/08/18 11:03:08;;;;;;;0.93;0.93;;;20.20;99.90;;;;;;4976580;28;20777;-82
2021/08/18 11:05:39;;;;;;;1.00;1.00;;;20.10;99.90;;;;;;4978940;28;20415;-81
2021/08/18 11:08:23;;;;;;;1.40;1.20;;;20.00;99.90;;;;;;4980000;28;20459;-81
2021/08/18 11:10:52;;;;;;;1.30;1.20;;;19.90;99.90;;;;;;4979430;28;20426;-81
2021/08/18 11:13:44;;;;;;;2.03;1.10;;;19.80;99.90;;;;;;4978223;28;20430;-82
2021/08/18 11:16:23;;;;;;;1.33;1.23;;;19.90;99.90;;;;;;4976287;28;20423;-82
2021/08/18 11:19:00;;;;;;;1.10;1.10;;;19.90;99.90;;;;;;4979817;28;20458;-82
2021/08/18 11:21:44;;;;;;;1.40;1.30;;;19.90;99.90;;;;;;4979470;28;20446;-81
2021/08/18 11:24:12;;;;;;;0.93;0.90;;;19.80;99.90;;;;;;4979091;28;20838;-81
2021/08/18 11:26:39;;;;;;;1.67;1.57;;;19.70;99.90;;;;;;4978628;28;20418;-81
2021/08/18 11:29:15;;;;;;;1.77;1.33;;;19.70;99.90;;;;;;4978199;28;20412;-81
2021/08/18 11:31:49;;;;;;;1.40;1.30;;;19.80;99.90;;;;;;4976446;28;20473;-81
2021/08/18 11:34:23;;;;;;;0.87;0.87;;;19.90;99.90;;;;;;4979648;28;20407;-81
2021/08/18 11:36:51;;;;;;;1.13;1.00;;;19.90;99.90;;;;;;4978869;28;20414;-81
2021/08/18 11:39:17;;;;;;;0.80;0.77;;;20.20;99.90;;;;;;4979174;28;20411;-82
2021/08/18 11:41:45;;;;;;;0.90;0.90;;;20.50;99.90;;;;;;4978774;28;20510;-82
2021/08/18 11:44:27;;;;;;;5.27;1.37;;;20.50;99.90;;;;;;4977676;28;20443;-82
2021/08/18 11:46:55;;;;;;;0.80;0.80;;;20.60;99.90;;;;;;4979389;28;20526;-81
2021/08/18 11:49:24;;;;;;;1.20;1.10;;;20.50;99.90;;;;;;4979291;28;20890;-81
2021/08/18 11:51:50;;;;;;;1.00;1.00;;;20.60;99.90;;;;;;4978650;28;20435;-81
2021/08/18 11:54:15;;;;;;;1.70;1.60;;;20.60;99.90;;;;;;4978416;28;20917;-81
2021/08/18 11:56:41;;;;;;;0.90;0.90;;;20.70;99.90;;;;;;4979244;28;20175;-82
2021/08/18 11:59:07;;;;;;;0.70;0.70;;;20.80;99.90;;;;;;4978627;28;20196;-81
2021/08/18 12:01:33;;;;;;;0.60;0.60;;;20.80;99.90;;;;;;4979082;28;20196;-81
2021/08/18 12:04:01;;;;;;;0.90;0.90;;;21.00;99.90;;;;;;4979499;28;20203;-81
2021/08/18 12:06:35;;;;;;;1.00;0.70;;;21.10;99.90;;;;;;4979147;28;20416;-81
2021/08/18 12:09:04;;;;;;;2.50;0.70;;;21.20;99.90;;;;;;4978931;28;20438;-81
2021/08/18 12:11:39;;;;;;;0.60;0.60;;;21.10;99.90;;;;;;4979310;28;20590;-81
2021/08/18 12:14:14;;;;;;;0.70;0.70;;;20.90;99.90;;;;;;4973078;28;20426;-78
2021/08/18 12:16:42;;;;;;;1.10;0.50;;;20.70;99.90;;;;;;4972862;28;20399;-79
2021/08/18 12:19:26;;;;;;;1.13;0.60;;;20.50;99.90;;;;;;4972878;28;20847;-78
2021/08/18 12:22:18;;;;;;;1.07;0.60;;;20.30;99.90;;;;;;4972694;28;20431;-78
2021/08/18 12:24:47;;;;;;;2.13;0.60;;;20.30;99.90;;;;;;4972836;28;20411;-78
2021/08/18 12:27:16;;;;;;;0.77;0.60;;;20.20;99.90;;;;;;4972699;28;20487;-78
2021/08/18 12:29:44;;;;;;;0.70;0.50;;;20.30;99.90;;;;;;4972684;28;20414;-79
2021/08/18 12:32:12;;;;;;;0.60;0.60;;;20.50;99.90;;;;;;4977406;28;20887;-79
2021/08/18 12:35:01;;;;;;;2.10;0.80;;;20.80;99.90;;;;;;4982903;28;20418;-81
2021/08/18 12:37:35;;;;;;;2.00;0.50;;;21.20;99.90;;;;;;4974431;28;20933;-80
2021/08/18 12:40:02;;;;;;;6.03;0.70;;;21.30;99.90;;;;;;4972534;28;20415;-79
2021/08/18 12:42:36;;;;;;;0.60;0.50;;;21.60;99.90;;;;;;4973218;28;20435;-80
2021/08/18 12:45:04;;;;;;;0.50;0.40;;;21.50;99.90;;;;;;4973250;28;20435;-79
2021/08/18 12:47:36;;;;;;;1.47;0.80;;;21.50;99.90;;;;;;4974595;28;20526;-80
2021/08/18 12:50:04;;;;;;;1.80;0.80;;;21.40;99.90;;;;;;4975386;28;20416;-81
2021/08/18 12:52:29;;;;;;;1.33;0.60;;;21.20;99.90;;;;;;4974791;28;20439;-80
2021/08/18 12:54:56;;;;;;;0.70;0.70;;;21.20;99.90;;;;;;4974774;28;20788;-79
2021/08/18 12:57:21;;;;;;;0.60;0.60;;;21.40;99.90;;;;;;4975189;28;20227;-80
2021/08/18 12:59:47;;;;;;;0.73;0.73;;;21.80;99.90;;;;;;4973238;28;20423;-79
2021/08/18 13:02:12;;;;;;;0.80;0.80;;;22.00;99.90;;;;;;4974808;28;20272;-79
2021/08/18 13:04:38;;;;;;;0.90;0.50;;;22.10;99.90;;;;;;4973468;28;20746;-79
2021/08/18 13:07:05;;;;;;;3.43;0.60;;;22.00;99.90;;;;;;4977541;28;20298;-79
2021/08/18 13:09:32;;;;;;;0.70;0.70;;;21.70;99.90;;;;;;4976883;28;20315;-80
2021/08/18 13:12:00;;;;;;;0.57;0.50;;;21.50;99.90;;;;;;4977731;28;20550;-80
2021/08/18 13:14:26;;;;;;;0.77;0.77;;;21.30;99.90;;;;;;4978272;28;20913;-80
2021/08/18 13:16:51;;;;;;;0.90;0.73;;;21.00;99.90;;;;;;4978033;28;20419;-81
2021/08/18 13:19:18;;;;;;;1.63;0.80;;;21.00;99.90;;;;;;4977910;28;20474;-79
2021/08/18 13:21:45;;;;;;;1.90;0.97;;;21.00;99.90;;;;;;4977409;28;20571;-80
2021/08/18 13:24:10;;;;;;;2.83;1.07;;;21.20;99.90;;;;;;4977496;28;20443;-79
2021/08/18 13:26:39;;;;;;;4.20;1.20;;;21.40;99.90;;;;;;4977774;28;20940;-79
2021/08/18 13:29:05;;;;;;;0.70;0.70;;;21.40;99.90;;;;;;4976824;28;20673;-79
2021/08/18 13:31:30;;;;;;;4.33;0.80;;;21.50;99.90;;;;;;4978050;28;20498;-79
2021/08/18 13:33:59;;;;;;;2.77;0.63;;;21.60;99.90;;;;;;4977111;28;20172;-80
2021/08/18 13:36:26;;;;;;;1.93;0.90;;;21.80;99.90;;;;;;4977664;28;20669;-79
2021/08/18 13:38:53;;;;;;;1.00;0.60;;;22.00;99.90;;;;;;4977749;28;20414;-79
2021/08/18 13:41:19;;;;;;;3.13;0.90;;;22.00;99.90;;;;;;4977633;28;20785;-79
2021/08/18 13:43:45;;;;;;;1.53;0.90;;;21.90;99.90;;;;;;4977806;28;20495;-79
2021/08/18 13:46:11;;;;;;;0.80;0.70;;;21.90;99.90;;;;;;4977839;28;20263;-80
2021/08/18 13:48:37;;;;;;;8.43;0.90;;;21.90;99.90;;;;;;4978167;28;20467;-79
2021/08/18 13:51:03;;;;;;;1.73;0.73;;;21.80;99.90;;;;;;4976513;28;20449;-80
2021/08/18 13:53:28;;;;;;;0.97;0.70;;;21.70;99.90;;;;;;4977829;28;20168;-80
2021/08/18 13:55:54;;;;;;;2.30;0.70;;;21.80;99.90;;;;;;4977565;28;20235;-79
2021/08/18 13:58:20;;;;;;;2.07;0.90;;;21.90;99.90;;;;;;4977934;28;20176;-80
2021/08/18 14:00:45;;;;;;;0.80;0.80;;;21.90;99.90;;;;;;4977659;28;20250;-80
2021/08/18 14:03:13;;;;;;;1.77;1.20;;;21.90;99.90;;;;;;4977246;28;20184;-80
2021/08/18 14:05:39;;;;;;;0.73;0.73;;;21.90;99.90;;;;;;4977092;28;20187;-80
2021/08/18 14:08:10;;;;;;;0.63;0.63;;;21.90;99.90;;;;;;4977936;28;20467;-80
2021/08/18 14:10:42;;;;;;;1.00;0.90;;;21.80;99.90;;;;;;4977254;28;20263;-80
2021/08/18 14:13:09;;;;;;;0.70;0.70;;;21.90;99.90;;;;;;4975220;28;20428;-79
2021/08/18 14:15:35;;;;;;;1.53;0.80;;;21.90;99.90;;;;;;4976874;28;20463;-79
2021/08/18 14:18:02;;;;;;;0.80;0.73;;;21.80;99.90;;;;;;4976091;28;20828;-79
2021/08/18 14:20:28;;;;;;;0.70;0.57;;;22.00;99.90;;;;;;4976906;28;20447;-79
2021/08/18 14:22:53;;;;;;;0.80;0.80;;;22.20;99.90;;;;;;4976831;28;20836;-80
2021/08/18 14:25:19;;;;;;;0.70;0.60;;;22.30;99.90;;;;;;4977849;28;20176;-79
2021/08/18 14:27:45;;;;;;;0.70;0.70;;;22.40;99.90;;;;;;4977452;28;20200;-79
2021/08/18 14:30:11;;;;;;;1.10;1.00;;;22.30;99.90;;;;;;4978289;28;20438;-80
2021/08/18 14:32:37;;;;;;;0.70;0.70;;;22.20;99.90;;;;;;4980998;28;20231;-81
2021/08/18 14:35:03;;;;;;;1.13;0.70;;;22.00;99.90;;;;;;4979934;28;20415;-81
2021/08/18 14:37:28;;;;;;;2.40;1.17;;;21.80;99.90;;;;;;4980583;28;20207;-81
2021/08/18 14:39:54;;;;;;;2.50;0.87;;;21.70;99.90;;;;;;4979485;28;21028;-80
2021/08/18 14:42:20;;;;;;;2.23;0.70;;;21.60;99.90;;;;;;4979437;28;20681;-81
2021/08/18 14:44:45;;;;;;;3.97;0.90;;;21.40;99.90;;;;;;4979142;28;20187;-81
2021/08/18 14:47:11;;;;;;;5.93;1.00;;;21.30;99.90;;;;;;4980270;28;20871;-80
2021/08/18 14:49:36;;;;;;;0.70;0.70;;;21.20;99.90;;;;;;4979541;28;20176;-81
2021/08/18 14:52:03;;;;;;;1.40;0.90;;;21.10;99.90;;;;;;4978980;28;20194;-81
2021/08/18 14:54:29;;;;;;;6.73;0.97;;;21.10;99.90;;;;;;4979090;28;20176;-81
2021/08/18 14:56:54;;;;;;;0.87;0.70;;;21.00;99.90;;;;;;4979420;28;20979;-80
2021/08/18 14:59:20;;;;;;;2.13;0.90;;;21.00;99.90;;;;;;4978854;28;20176;-80
2021/08/18 15:01:46;;;;;;;4.63;0.87;;;21.00;99.90;;;;;;4978851;28;20223;-81
2021/08/18 15:04:12;;;;;;;1.00;0.90;;;21.00;99.90;;;;;;4979115;28;20172;-80
2021/08/18 15:06:37;;;;;;;1.00;0.90;;;21.00;99.90;;;;;;4979637;28;20414;-80
2021/08/18 15:09:03;;;;;;;1.07;1.07;;;21.10;99.90;;;;;;4978627;28;20287;-80
2021/08/18 15:11:30;;;;;;;4.37;1.00;;;21.00;99.90;;;;;;4979325;28;20204;-80
2021/08/18 15:13:55;;;;;;;1.77;0.73;;;21.00;99.90;;;;;;4977647;28;20168;-80
2021/08/18 15:16:21;;;;;;;0.70;0.70;;;21.10;99.90;;;;;;4977690;28;20430;-81
2021/08/18 15:18:47;;;;;;;1.90;1.80;;;21.00;99.90;;;;;;4978890;28;20258;-80
2021/08/18 15:21:13;;;;;;;1.10;0.90;;;21.10;99.90;;;;;;4978290;28;20200;-80
2021/08/18 15:23:38;;;;;;;0.90;0.90;;;21.20;99.90;;;;;;4977860;28;20187;-80
2021/08/18 15:26:04;;;;;;;0.73;0.70;;;21.10;99.90;;;;;;4978095;28;20427;-81
2021/08/18 15:28:30;;;;;;;1.30;1.17;;;21.20;99.90;;;;;;4978362;28;20685;-80
2021/08/18 15:30:57;;;;;;;1.57;0.93;;;21.30;99.90;;;;;;4977824;28;20210;-80
2021/08/18 15:33:22;;;;;;;1.23;1.10;;;21.40;99.90;;;;;;4977817;28;20614;-80
2021/08/18 15:35:48;;;;;;;1.37;1.00;;;21.40;99.90;;;;;;4978503;28;20411;-80
2021/08/18 15:38:14;;;;;;;0.80;0.80;;;21.40;99.90;;;;;;4978773;28;20179;-81
2021/08/18 15:40:41;;;;;;;1.10;0.87;;;21.50;99.90;;;;;;4977937;28;20184;-80
2021/08/18 15:43:09;;;;;;;2.00;1.30;;;21.60;99.90;;;;;;4977869;28;20179;-80
2021/08/18 15:45:35;;;;;;;1.07;0.80;;;21.70;99.90;;;;;;4977547;28;20426;-81
2021/08/18 15:48:01;;;;;;;0.70;0.70;;;21.70;99.90;;;;;;4977192;28;20451;-80
2021/08/18 15:50:27;;;;;;;1.00;0.87;;;21.60;99.90;;;;;;4976445;28;20183;-80
2021/08/18 15:52:52;;;;;;;1.90;1.80;;;21.60;99.90;;;;;;4976898;28;20435;-80
2021/08/18 15:55:21;;;;;;;1.17;1.10;;;21.50;99.90;;;;;;4977498;28;20421;-80
2021/08/18 15:57:47;;;;;;;1.53;1.00;;;21.60;99.90;;;;;;4977764;28;20172;-78
2021/08/18 16:00:13;;;;;;;0.93;0.93;;;21.70;99.90;;;;;;4977625;28;20423;-80
2021/08/18 16:02:41;;;;;;;0.80;0.80;;;21.70;99.90;;;;;;4977279;28;20578;-80
2021/08/18 16:05:08;;;;;;;0.70;0.70;;;21.70;99.90;;;;;;4979825;28;20456;-81
2021/08/18 16:07:34;;;;;;;1.03;1.00;;;21.50;99.90;;;;;;4980426;28;20498;-80
2021/08/18 16:10:00;;;;;;;1.20;1.10;;;21.50;99.90;;;;;;4978817;28;20422;-80
2021/08/18 16:12:25;;;;;;;1.23;0.93;;;21.20;99.90;;;;;;4977340;28;20436;-80
2021/08/18 16:14:51;;;;;;;3.43;1.13;;;21.00;99.90;;;;;;4977985;28;20173;-81
2021/08/18 16:17:17;;;;;;;1.83;1.20;;;20.80;99.90;;;;;;4977459;28;20188;-81
2021/08/18 16:19:43;;;;;;;2.20;0.93;;;20.70;99.90;;;;;;4977392;28;20176;-80
2021/08/18 16:22:09;;;;;;;0.90;0.80;;;20.60;99.90;;;;;;4976022;28;20442;-78
2021/08/18 16:24:34;;;;;;;1.30;0.90;;;20.60;99.90;;;;;;4977353;28;20184;-80
2021/08/18 16:27:00;;;;;;;0.70;0.70;;;20.60;99.90;;;;;;4977115;28;20184;-81
2021/08/18 16:29:25;;;;;;;2.13;0.90;;;20.50;99.90;;;;;;4977639;28;20184;-80
2021/08/18 16:31:52;;;;;;;1.20;1.00;;;20.50;99.90;;;;;;4976502;28;20215;-80
2021/08/18 16:34:19;;;;;;;1.20;1.00;;;20.60;99.90;;;;;;4977055;28;20265;-80
2021/08/18 16:36:45;;;;;;;1.40;1.30;;;20.70;99.90;;;;;;4976930;28;20454;-79
2021/08/18 16:39:11;;;;;;;2.17;1.53;;;20.70;99.90;;;;;;4976039;28;20416;-80
2021/08/18 16:41:36;;;;;;;1.03;0.93;;;20.70;99.90;;;;;;4977268;28;20227;-79
2021/08/18 16:44:02;;;;;;;4.93;1.20;;;20.70;99.90;;;;;;4980263;28;20668;-81
2021/08/18 16:46:29;;;;;;;0.93;0.90;;;20.70;99.90;;;;;;4979259;28;20180;-80
2021/08/18 16:48:54;;;;;;;1.23;1.13;;;20.60;99.90;;;;;;4978973;28;20200;-80
2021/08/18 16:51:20;;;;;;;2.07;1.00;;;20.60;99.90;;;;;;4978204;28;21032;-80
2021/08/18 16:53:46;;;;;;;1.10;1.10;;;20.50;99.90;;;;;;4978492;28;20660;-81
2021/08/18 16:56:12;;;;;;;1.60;1.30;;;20.40;99.90;;;;;;4979240;28;20176;-80
2021/08/18 16:58:38;;;;;;;1.10;1.10;;;20.40;99.90;;;;;;4979550;28;20181;-80
2021/08/18 17:01:04;;;;;;;2.10;0.90;;;20.40;99.90;;;;;;4978532;28;20494;-80
2021/08/18 17:03:29;;;;;;;1.20;1.20;;;20.40;99.90;;;;;;4978487;28;20194;-81
2021/08/18 17:05:55;;;;;;;2.80;1.20;;;20.30;99.90;;;;;;4977645;28;20180;-80
2021/08/18 17:08:21;;;;;;;1.60;1.00;;;20.30;99.90;;;;;;4977559;28;20215;-80
2021/08/18 17:10:46;;;;;;;1.87;1.30;;;20.20;99.90;;;;;;4979005;28;20238;-81
2021/08/18 17:13:13;;;;;;;4.30;1.60;;;20.20;99.90;;;;;;4979134;28;20176;-81
2021/08/18 17:15:38;;;;;;;2.20;1.20;;;20.10;99.90;;;;;;4979029;28;20601;-81
2021/08/18 17:18:04;;;;;;;3.43;1.90;;;20.20;99.90;;;;;;4978823;28;20447;-80
2021/08/18 17:20:30;;;;;;;1.80;1.20;;;20.10;99.90;;;;;;4978319;28;20184;-78